sensor_id;sensor_type;location;lat;lon;timestamp;pressure;altitude;pressure_sealevel;temperature
82780;BMP280;72511;45.120;20.720;2024-01-25T00:03:35;100933.59;;;3.94
82780;BMP280;72511;45.120;20.720;2024-01-25T00:13:36;100951.81;;;3.85
82780;BMP280;72511;45.120;20.720;2024-01-25T00:23:38;100968.16;;;3.80
82780;BMP280;72511;45.120;20.720;2024-01-25T00:33:40;100970.81;;;3.80
82780;BMP280;72511;45.120;20.720;2024-01-25T00:43:41;100972.97;;;3.74
82780;BMP280;72511;45.120;20.720;2024-01-25T00:53:43;100982.50;;;3.72
82780;BMP280;72511;45.120;20.720;2024-01-25T01:03:44;100985.19;;;3.72
82780;BMP280;72511;45.120;20.720;2024-01-25T01:13:45;100984.75;;;3.70
82780;BMP280;72511;45.120;20.720;2024-01-25T01:23:47;100981.97;;;3.44
82780;BMP280;72511;45.120;20.720;2024-01-25T01:33:49;100989.88;;;3.21
82780;BMP280;72511;45.120;20.720;2024-01-25T01:43:53;100974.03;;;2.97
82780;BMP280;72511;45.120;20.720;2024-01-25T01:53:55;100951.78;;;2.93
82780;BMP280;72511;45.120;20.720;2024-01-25T02:03:57;100930.66;;;3.04
82780;BMP280;72511;45.120;20.720;2024-01-25T02:13:59;100926.31;;;3.15
82780;BMP280;72511;45.120;20.720;2024-01-25T02:24:00;100947.28;;;3.13
82780;BMP280;72511;45.120;20.720;2024-01-25T02:34:02;100955.72;;;3.15
82780;BMP280;72511;45.120;20.720;2024-01-25T02:44:04;100950.91;;;3.05
82780;BMP280;72511;45.120;20.720;2024-01-25T02:54:05;100964.13;;;2.98
82780;BMP280;72511;45.120;20.720;2024-01-25T03:04:06;100964.22;;;3.01
82780;BMP280;72511;45.120;20.720;2024-01-25T03:14:08;100968.94;;;3.08
82780;BMP280;72511;45.120;20.720;2024-01-25T03:24:09;100949.22;;;2.97
82780;BMP280;72511;45.120;20.720;2024-01-25T03:34:10;100969.03;;;2.96
82780;BMP280;72511;45.120;20.720;2024-01-25T03:44:12;100980.84;;;2.95
82780;BMP280;72511;45.120;20.720;2024-01-25T03:54:13;100957.66;;;2.99
82780;BMP280;72511;45.120;20.720;2024-01-25T04:04:15;100955.84;;;3.03
82780;BMP280;72511;45.120;20.720;2024-01-25T04:14:16;100955.38;;;3.16
82780;BMP280;72511;45.120;20.720;2024-01-25T04:24:18;100960.78;;;3.20
82780;BMP280;72511;45.120;20.720;2024-01-25T04:34:19;100945.16;;;3.03
82780;BMP280;72511;45.120;20.720;2024-01-25T04:44:21;100952.66;;;2.97
82780;BMP280;72511;45.120;20.720;2024-01-25T04:54:22;100966.34;;;2.96
82780;BMP280;72511;45.120;20.720;2024-01-25T05:04:23;100965.44;;;2.88
82780;BMP280;72511;45.120;20.720;2024-01-25T05:14:25;100973.69;;;2.99
82780;BMP280;72511;45.120;20.720;2024-01-25T05:24:26;100966.72;;;2.94
82780;BMP280;72511;45.120;20.720;2024-01-25T05:34:28;100962.50;;;2.93
82780;BMP280;72511;45.120;20.720;2024-01-25T05:44:29;100957.94;;;2.94
82780;BMP280;72511;45.120;20.720;2024-01-25T05:54:31;100956.94;;;3.02
82780;BMP280;72511;45.120;20.720;2024-01-25T06:04:32;100981.53;;;3.42
82780;BMP280;72511;45.120;20.720;2024-01-25T06:14:34;100987.16;;;3.56
82780;BMP280;72511;45.120;20.720;2024-01-25T06:24:35;100989.47;;;3.76
82780;BMP280;72511;45.120;20.720;2024-01-25T06:34:37;100975.34;;;3.57
82780;BMP280;72511;45.120;20.720;2024-01-25T06:44:38;100983.03;;;3.58
82780;BMP280;72511;45.120;20.720;2024-01-25T06:54:39;100963.78;;;3.53
82780;BMP280;72511;45.120;20.720;2024-01-25T07:04:41;100965.63;;;3.68
82780;BMP280;72511;45.120;20.720;2024-01-25T07:14:42;100981.66;;;3.87
82780;BMP280;72511;45.120;20.720;2024-01-25T07:24:44;100976.84;;;3.96
82780;BMP280;72511;45.120;20.720;2024-01-25T07:34:45;100974.56;;;4.17
82780;BMP280;72511;45.120;20.720;2024-01-25T07:44:47;100967.00;;;4.45
82780;BMP280;72511;45.120;20.720;2024-01-25T07:54:48;100973.47;;;4.67
82780;BMP280;72511;45.120;20.720;2024-01-25T08:04:50;100959.84;;;4.79
82780;BMP280;72511;45.120;20.720;2024-01-25T08:14:51;100977.94;;;5.11
82780;BMP280;72511;45.120;20.720;2024-01-25T08:24:53;100992.59;;;5.47
82780;BMP280;72511;45.120;20.720;2024-01-25T08:34:54;100999.91;;;5.86
82780;BMP280;72511;45.120;20.720;2024-01-25T08:44:55;100993.72;;;6.19
82780;BMP280;72511;45.120;20.720;2024-01-25T08:54:57;100996.00;;;6.64
82780;BMP280;72511;45.120;20.720;2024-01-25T09:04:58;101011.56;;;6.91
82780;BMP280;72511;45.120;20.720;2024-01-25T09:15:00;101017.50;;;7.25
82780;BMP280;72511;45.120;20.720;2024-01-25T09:25:01;101009.22;;;7.72
82780;BMP280;72511;45.120;20.720;2024-01-25T09:35:03;101001.59;;;8.09
82780;BMP280;72511;45.120;20.720;2024-01-25T09:45:06;100981.53;;;8.56
82780;BMP280;72511;45.120;20.720;2024-01-25T09:55:11;101003.06;;;8.73
82780;BMP280;72511;45.120;20.720;2024-01-25T10:05:19;100981.44;;;8.98
82780;BMP280;72511;45.120;20.720;2024-01-25T10:15:20;100951.25;;;9.13
82780;BMP280;72511;45.120;20.720;2024-01-25T10:25:22;100951.63;;;9.80
82780;BMP280;72511;45.120;20.720;2024-01-25T10:35:25;100959.13;;;10.10
82780;BMP280;72511;45.120;20.720;2024-01-25T10:45:27;100946.28;;;10.58
82780;BMP280;72511;45.120;20.720;2024-01-25T10:55:28;100948.91;;;10.95
82780;BMP280;72511;45.120;20.720;2024-01-25T11:05:30;100935.72;;;10.97
82780;BMP280;72511;45.120;20.720;2024-01-25T11:25:35;100917.91;;;10.99
82780;BMP280;72511;45.120;20.720;2024-01-25T11:35:37;100890.44;;;11.01
82780;BMP280;72511;45.120;20.720;2024-01-25T11:45:39;100892.31;;;11.04
82780;BMP280;72511;45.120;20.720;2024-01-25T11:55:43;100891.75;;;11.16
82780;BMP280;72511;45.120;20.720;2024-01-25T12:05:46;100891.66;;;11.23
82780;BMP280;72511;45.120;20.720;2024-01-25T12:15:47;100887.00;;;11.46
82780;BMP280;72511;45.120;20.720;2024-01-25T12:25:48;100876.25;;;11.66
82780;BMP280;72511;45.120;20.720;2024-01-25T12:35:50;100871.19;;;11.68
82780;BMP280;72511;45.120;20.720;2024-01-25T12:45:51;100873.44;;;11.23
82780;BMP280;72511;45.120;20.720;2024-01-25T12:55:53;100870.94;;;10.53
82780;BMP280;72511;45.120;20.720;2024-01-25T13:05:56;100868.66;;;10.14
82780;BMP280;72511;45.120;20.720;2024-01-25T13:15:57;100858.25;;;10.13
82780;BMP280;72511;45.120;20.720;2024-01-25T13:25:58;100856.06;;;10.38
82780;BMP280;72511;45.120;20.720;2024-01-25T13:36:00;100843.34;;;10.31
82780;BMP280;72511;45.120;20.720;2024-01-25T13:46:02;100835.59;;;10.33
82780;BMP280;72511;45.120;20.720;2024-01-25T13:56:05;100815.53;;;10.31
82780;BMP280;72511;45.120;20.720;2024-01-25T14:06:09;100809.59;;;10.09
82780;BMP280;72511;45.120;20.720;2024-01-25T14:16:10;100825.63;;;10.27
82780;BMP280;72511;45.120;20.720;2024-01-25T14:26:18;100838.72;;;10.32
82780;BMP280;72511;45.120;20.720;2024-01-25T14:36:19;100827.00;;;10.08
82780;BMP280;72511;45.120;20.720;2024-01-25T14:46:21;100829.47;;;9.92
82780;BMP280;72511;45.120;20.720;2024-01-25T14:56:22;100824.94;;;9.42
82780;BMP280;72511;45.120;20.720;2024-01-25T15:06:24;100856.47;;;9.01
82780;BMP280;72511;45.120;20.720;2024-01-25T15:16:26;100840.03;;;8.67
82780;BMP280;72511;45.120;20.720;2024-01-25T15:26:27;100859.81;;;8.40
82780;BMP280;72511;45.120;20.720;2024-01-25T15:36:29;100869.50;;;8.06
82780;BMP280;72511;45.120;20.720;2024-01-25T15:46:31;100873.72;;;7.82
82780;BMP280;72511;45.120;20.720;2024-01-25T15:56:32;100907.63;;;7.83
82780;BMP280;72511;45.120;20.720;2024-01-25T16:06:34;100905.69;;;7.73
82780;BMP280;72511;45.120;20.720;2024-01-25T16:16:36;100920.72;;;7.88
82780;BMP280;72511;45.120;20.720;2024-01-25T16:26:37;100945.72;;;7.92
82780;BMP280;72511;45.120;20.720;2024-01-25T16:36:39;100967.69;;;7.87
82780;BMP280;72511;45.120;20.720;2024-01-25T16:46:40;100965.34;;;7.82
82780;BMP280;72511;45.120;20.720;2024-01-25T16:56:42;100973.78;;;7.67
82780;BMP280;72511;45.120;20.720;2024-01-25T17:06:48;100986.50;;;7.56
82780;BMP280;72511;45.120;20.720;2024-01-25T17:16:50;101009.16;;;7.55
82780;BMP280;72511;45.120;20.720;2024-01-25T17:26:52;100988.69;;;7.36
82780;BMP280;72511;45.120;20.720;2024-01-25T17:36:53;101005.63;;;7.37
82780;BMP280;72511;45.120;20.720;2024-01-25T17:46:55;101024.53;;;7.44
82780;BMP280;72511;45.120;20.720;2024-01-25T17:56:56;101024.53;;;7.44
82780;BMP280;72511;45.120;20.720;2024-01-25T18:07:00;101007.59;;;7.43
82780;BMP280;72511;45.120;20.720;2024-01-25T18:17:02;101020.66;;;7.48
82780;BMP280;72511;45.120;20.720;2024-01-25T18:27:04;101030.59;;;7.27
82780;BMP280;72511;45.120;20.720;2024-01-25T18:37:06;101017.91;;;7.27
82780;BMP280;72511;45.120;20.720;2024-01-25T18:47:08;101012.56;;;7.38
82780;BMP280;72511;45.120;20.720;2024-01-25T18:57:11;101021.44;;;7.45
82780;BMP280;72511;45.120;20.720;2024-01-25T19:07:13;101007.16;;;7.38
82780;BMP280;72511;45.120;20.720;2024-01-25T19:17:16;101022.16;;;7.32
82780;BMP280;72511;45.120;20.720;2024-01-25T19:27:17;101010.59;;;7.31
82780;BMP280;72511;45.120;20.720;2024-01-25T19:37:19;101021.41;;;7.38
82780;BMP280;72511;45.120;20.720;2024-01-25T19:47:20;101012.94;;;7.36
82780;BMP280;72511;45.120;20.720;2024-01-25T19:57:22;101008.69;;;7.32
82780;BMP280;72511;45.120;20.720;2024-01-25T20:07:25;101023.28;;;7.20
82780;BMP280;72511;45.120;20.720;2024-01-25T20:17:26;100994.09;;;6.68
82780;BMP280;72511;45.120;20.720;2024-01-25T20:27:29;101008.91;;;6.41
82780;BMP280;72511;45.120;20.720;2024-01-25T20:37:31;101010.97;;;6.14
82780;BMP280;72511;45.120;20.720;2024-01-25T20:47:32;101008.50;;;5.99
82780;BMP280;72511;45.120;20.720;2024-01-25T20:57:34;101016.56;;;5.62
82780;BMP280;72511;45.120;20.720;2024-01-25T21:07:37;101024.44;;;5.48
82780;BMP280;72511;45.120;20.720;2024-01-25T21:17:39;101011.44;;;5.24
82780;BMP280;72511;45.120;20.720;2024-01-25T21:27:40;101015.50;;;5.11
82780;BMP280;72511;45.120;20.720;2024-01-25T21:37:43;101013.78;;;4.74
82780;BMP280;72511;45.120;20.720;2024-01-25T21:47:45;101021.47;;;4.75
82780;BMP280;72511;45.120;20.720;2024-01-25T21:57:49;101007.13;;;4.64
82780;BMP280;72511;45.120;20.720;2024-01-25T22:07:50;101021.09;;;4.28
82780;BMP280;72511;45.120;20.720;2024-01-25T22:17:52;101016.31;;;3.99
82780;BMP280;72511;45.120;20.720;2024-01-25T22:27:53;101031.44;;;3.88
82780;BMP280;72511;45.120;20.720;2024-01-25T22:37:58;101000.88;;;3.54
82780;BMP280;72511;45.120;20.720;2024-01-25T22:48:00;101019.78;;;3.61
82780;BMP280;72511;45.120;20.720;2024-01-25T22:58:02;101018.22;;;3.60
82780;BMP280;72511;45.120;20.720;2024-01-25T23:08:04;101015.06;;;3.74
82780;BMP280;72511;45.120;20.720;2024-01-25T23:18:06;101032.44;;;4.02
82780;BMP280;72511;45.120;20.720;2024-01-25T23:28:07;101037.31;;;3.40
82780;BMP280;72511;45.120;20.720;2024-01-25T23:38:08;101047.44;;;3.00
82780;BMP280;72511;45.120;20.720;2024-01-25T23:48:10;101046.44;;;2.89
82780;BMP280;72511;45.120;20.720;2024-01-25T23:58:11;101046.75;;;3.03
